QFA2071 YMML-YSSY
Flight info
| Callsign | QFA2071 |
|---|---|
| Flight time | 1h 9m |
| Altitude | 39000 |
| Route | DOSEL Y59 RIVET |
| Aircraft | A35K/H-SDE2E3GHIJ3J4J5LM1ORWXY/LB1D1 |
Departure
| Time | 2026-05-08 07:03 |
|---|---|
| Airport | Melbourne Airport (YMML) |
Arrival
| Time | 2026-05-08 08:12 |
|---|---|
| Airport | Sydney Kingsford Smith International Airport (YSSY) |
| Time | Latitude | Longitude | Altitude | Speed | Heading |
|---|---|---|---|---|---|
| 2026-05-08 06:36 | -37.66764 | 144.84454 | 374 ft | 0 kts | 169° |
| 2026-05-08 06:53 | -37.66755 | 144.84452 | 369 ft | 3 kts | 169° |
| 2026-05-08 06:53 | -37.66736 | 144.84448 | 369 ft | 3 kts | 169° |
| 2026-05-08 06:53 | -37.66718 | 144.84443 | 371 ft | 3 kts | 169° |
| 2026-05-08 06:53 | -37.66699 | 144.84440 | 367 ft | 3 kts | 191° |
| 2026-05-08 06:54 | -37.66680 | 144.84449 | 368 ft | 3 kts | 228° |
| 2026-05-08 06:54 | -37.66671 | 144.84465 | 368 ft | 0 kts | 256° |
| 2026-05-08 06:57 | -37.66678 | 144.84410 | 369 ft | 18 kts | 263° |
| 2026-05-08 06:57 | -37.66692 | 144.84260 | 377 ft | 16 kts | 267° |
| 2026-05-08 06:57 | -37.66626 | 144.84165 | 381 ft | 17 kts | 346° |
| 2026-05-08 06:57 | -37.66488 | 144.84136 | 380 ft | 23 kts | 352° |
| 2026-05-08 06:58 | -37.66324 | 144.84106 | 378 ft | 7 kts | 351° |
| 2026-05-08 06:58 | -37.66322 | 144.84106 | 378 ft | 0 kts | 351° |
| 2026-05-08 06:58 | -37.66318 | 144.84105 | 378 ft | 3 kts | 351° |
| 2026-05-08 06:59 | -37.66278 | 144.84097 | 378 ft | 9 kts | 351° |
| 2026-05-08 06:59 | -37.66211 | 144.84085 | 382 ft | 11 kts | 352° |
| 2026-05-08 06:59 | -37.66122 | 144.84069 | 382 ft | 16 kts | 352° |
| 2026-05-08 06:59 | -37.66000 | 144.84045 | 388 ft | 19 kts | 352° |
| 2026-05-08 07:00 | -37.65869 | 144.84021 | 394 ft | 19 kts | 352° |
| 2026-05-08 07:00 | -37.65735 | 144.83996 | 406 ft | 20 kts | 351° |
| 2026-05-08 07:00 | -37.65595 | 144.83969 | 409 ft | 21 kts | 351° |
| 2026-05-08 07:00 | -37.65449 | 144.83933 | 417 ft | 22 kts | 348° |
| 2026-05-08 07:01 | -37.65313 | 144.83840 | 417 ft | 23 kts | 300° |
| 2026-05-08 07:01 | -37.65307 | 144.83685 | 434 ft | 0 kts | 262° |
| 2026-05-08 07:01 | -37.65307 | 144.83679 | 434 ft | 0 kts | 262° |
| 2026-05-08 07:02 | -37.65308 | 144.83672 | 434 ft | 3 kts | 262° |
| 2026-05-08 07:02 | -37.65313 | 144.83625 | 427 ft | 8 kts | 262° |
| 2026-05-08 07:02 | -37.65324 | 144.83535 | 422 ft | 12 kts | 258° |
| 2026-05-08 07:03 | -37.65400 | 144.83508 | 426 ft | 15 kts | 171° |
| 2026-05-08 07:03 | -37.65638 | 144.83551 | 412 ft | 77 kts | 172° |
| 2026-05-08 07:03 | -37.66481 | 144.83707 | 424 ft | 161 kts | 173° |
| 2026-05-08 07:03 | -37.67668 | 144.83917 | 1172 ft | 181 kts | 173° |
| 2026-05-08 07:04 | -37.68953 | 144.84160 | 2165 ft | 194 kts | 174° |
| 2026-05-08 07:04 | -37.70308 | 144.84303 | 2829 ft | 201 kts | 184° |
| 2026-05-08 07:04 | -37.71641 | 144.83737 | 3540 ft | 211 kts | 214° |
| 2026-05-08 07:04 | -37.72525 | 144.82174 | 4278 ft | 230 kts | 249° |
| 2026-05-08 07:05 | -37.72660 | 144.80107 | 5140 ft | 242 kts | 268° |
| 2026-05-08 07:05 | -37.72570 | 144.77989 | 6037 ft | 248 kts | 268° |
| 2026-05-08 07:05 | -37.72474 | 144.75778 | 6833 ft | 257 kts | 268° |
| 2026-05-08 07:05 | -37.72392 | 144.73490 | 7604 ft | 264 kts | 267° |
| 2026-05-08 07:06 | -37.72317 | 144.71150 | 8450 ft | 269 kts | 267° |
| 2026-05-08 07:06 | -37.72245 | 144.68776 | 9359 ft | 272 kts | 266° |
| 2026-05-08 07:06 | -37.72174 | 144.66376 | 10254 ft | 277 kts | 266° |
| 2026-05-08 07:06 | -37.72108 | 144.63859 | 10657 ft | 297 kts | 266° |
| 2026-05-08 07:07 | -37.72028 | 144.61153 | 10954 ft | 320 kts | 268° |
| 2026-05-08 07:07 | -37.71711 | 144.58271 | 11317 ft | 340 kts | 275° |
| 2026-05-08 07:07 | -37.71235 | 144.55311 | 11928 ft | 347 kts | 276° |
| 2026-05-08 07:07 | -37.70734 | 144.52306 | 12617 ft | 352 kts | 276° |
| 2026-05-08 07:08 | -37.70231 | 144.49259 | 13274 ft | 356 kts | 276° |
| 2026-05-08 07:08 | -37.69658 | 144.46185 | 13952 ft | 364 kts | 283° |
| 2026-05-08 07:08 | -37.68440 | 144.43322 | 14563 ft | 379 kts | 303° |
| 2026-05-08 07:08 | -37.66468 | 144.41042 | 15170 ft | 392 kts | 323° |
| 2026-05-08 07:09 | -37.63986 | 144.39654 | 15778 ft | 401 kts | 343° |
| 2026-05-08 07:09 | -37.61193 | 144.39295 | 16399 ft | 407 kts | 2° |
| 2026-05-08 07:09 | -37.58415 | 144.40016 | 17033 ft | 409 kts | 19° |
| 2026-05-08 07:09 | -37.55729 | 144.41250 | 17682 ft | 412 kts | 21° |
| 2026-05-08 07:10 | -37.53077 | 144.42638 | 18286 ft | 415 kts | 27° |
| 2026-05-08 07:10 | -37.50683 | 144.44645 | 18822 ft | 415 kts | 43° |
| 2026-05-08 07:10 | -37.48832 | 144.47413 | 19351 ft | 414 kts | 59° |
| 2026-05-08 07:10 | -37.47405 | 144.50552 | 19875 ft | 413 kts | 66° |
| 2026-05-08 07:11 | -37.46204 | 144.53842 | 20448 ft | 413 kts | 70° |
| 2026-05-08 07:11 | -37.45105 | 144.57195 | 20984 ft | 415 kts | 71° |
| 2026-05-08 07:11 | -37.44036 | 144.60554 | 21445 ft | 419 kts | 71° |
| 2026-05-08 07:11 | -37.42937 | 144.63969 | 21987 ft | 422 kts | 71° |
| 2026-05-08 07:12 | -37.41807 | 144.67390 | 22520 ft | 424 kts | 70° |
| 2026-05-08 07:12 | -37.40645 | 144.70824 | 23054 ft | 427 kts | 70° |
| 2026-05-08 07:12 | -37.39460 | 144.74267 | 23593 ft | 430 kts | 70° |
| 2026-05-08 07:12 | -37.38259 | 144.77725 | 24106 ft | 431 kts | 69° |
| 2026-05-08 07:13 | -37.37049 | 144.81190 | 24556 ft | 433 kts | 69° |
| 2026-05-08 07:13 | -37.35831 | 144.84670 | 24977 ft | 437 kts | 70° |
| 2026-05-08 07:13 | -37.34603 | 144.88178 | 25394 ft | 440 kts | 70° |
| 2026-05-08 07:13 | -37.33363 | 144.91721 | 25795 ft | 445 kts | 70° |
| 2026-05-08 07:14 | -37.32115 | 144.95288 | 26270 ft | 447 kts | 70° |
| 2026-05-08 07:14 | -37.30873 | 144.98834 | 26762 ft | 450 kts | 70° |
| 2026-05-08 07:14 | -37.29607 | 145.02445 | 27283 ft | 453 kts | 70° |
| 2026-05-08 07:14 | -37.28330 | 145.06085 | 27812 ft | 457 kts | 70° |
| 2026-05-08 07:15 | -37.27042 | 145.09748 | 28373 ft | 460 kts | 70° |
| 2026-05-08 07:15 | -37.25741 | 145.13448 | 28934 ft | 464 kts | 70° |
| 2026-05-08 07:15 | -37.24432 | 145.17163 | 29499 ft | 468 kts | 70° |
| 2026-05-08 07:15 | -37.23106 | 145.20925 | 30067 ft | 472 kts | 70° |
| 2026-05-08 07:16 | -37.21766 | 145.24718 | 30617 ft | 476 kts | 70° |
| 2026-05-08 07:16 | -37.20414 | 145.28542 | 31130 ft | 480 kts | 70° |
| 2026-05-08 07:16 | -37.19065 | 145.32351 | 31632 ft | 484 kts | 70° |
| 2026-05-08 07:16 | -37.17688 | 145.36225 | 32146 ft | 487 kts | 70° |
| 2026-05-08 07:17 | -37.16087 | 145.40013 | 32632 ft | 495 kts | 62° |
| 2026-05-08 07:17 | -37.14177 | 145.43636 | 33105 ft | 500 kts | 59° |
| 2026-05-08 07:17 | -37.12177 | 145.47227 | 33574 ft | 504 kts | 59° |
| 2026-05-08 07:17 | -37.10124 | 145.50811 | 34030 ft | 507 kts | 58° |
| 2026-05-08 07:18 | -37.08044 | 145.54399 | 34479 ft | 509 kts | 58° |
| 2026-05-08 07:18 | -37.05984 | 145.57940 | 35035 ft | 508 kts | 58° |
| 2026-05-08 07:18 | -37.03906 | 145.61513 | 35654 ft | 504 kts | 58° |
| 2026-05-08 07:18 | -37.01852 | 145.65055 | 36257 ft | 502 kts | 57° |
| 2026-05-08 07:19 | -36.99807 | 145.68588 | 36827 ft | 500 kts | 57° |
| 2026-05-08 07:19 | -36.97774 | 145.72106 | 37380 ft | 499 kts | 57° |
| 2026-05-08 07:19 | -36.95742 | 145.75620 | 37920 ft | 497 kts | 57° |
| 2026-05-08 07:19 | -36.93718 | 145.79120 | 38486 ft | 496 kts | 57° |
| 2026-05-08 07:20 | -36.91695 | 145.82615 | 38943 ft | 496 kts | 57° |
| 2026-05-08 07:20 | -36.89671 | 145.86106 | 39191 ft | 499 kts | 56° |
| 2026-05-08 07:20 | -36.85558 | 145.93195 | 39238 ft | 512 kts | 56° |
| 2026-05-08 07:21 | -36.81353 | 146.00420 | 39239 ft | 513 kts | 56° |
| 2026-05-08 07:21 | -36.77143 | 146.07631 | 39243 ft | 513 kts | 56° |
| 2026-05-08 07:22 | -36.72951 | 146.14803 | 39231 ft | 512 kts | 55° |
| 2026-05-08 07:22 | -36.68752 | 146.21972 | 39227 ft | 512 kts | 55° |
| 2026-05-08 07:23 | -36.64569 | 146.29100 | 39228 ft | 512 kts | 55° |
| 2026-05-08 07:23 | -36.60358 | 146.36258 | 39229 ft | 514 kts | 55° |
| 2026-05-08 07:24 | -36.56121 | 146.43447 | 39225 ft | 515 kts | 55° |
| 2026-05-08 07:24 | -36.51873 | 146.50638 | 39225 ft | 515 kts | 55° |
| 2026-05-08 07:25 | -36.47621 | 146.57822 | 39222 ft | 516 kts | 54° |
| 2026-05-08 07:26 | -36.41241 | 146.68571 | 39220 ft | 517 kts | 54° |
| 2026-05-08 07:26 | -36.36959 | 146.75767 | 39220 ft | 517 kts | 54° |
| 2026-05-08 07:27 | -36.33399 | 146.81739 | 39211 ft | 518 kts | 54° |
| 2026-05-08 07:27 | -36.29108 | 146.88923 | 39220 ft | 518 kts | 54° |
| 2026-05-08 07:28 | -36.24812 | 146.96099 | 39217 ft | 518 kts | 54° |
| 2026-05-08 07:28 | -36.20522 | 147.03252 | 39215 ft | 519 kts | 54° |
| 2026-05-08 07:29 | -36.16213 | 147.10428 | 39204 ft | 519 kts | 54° |
| 2026-05-08 07:29 | -36.11889 | 147.17606 | 39210 ft | 521 kts | 54° |
| 2026-05-08 07:30 | -36.07582 | 147.24740 | 39213 ft | 511 kts | 54° |
| 2026-05-08 07:30 | -36.03404 | 147.31748 | 39216 ft | 508 kts | 54° |
| 2026-05-08 07:31 | -35.99224 | 147.38781 | 39229 ft | 508 kts | 54° |
| 2026-05-08 07:31 | -35.95025 | 147.45768 | 39217 ft | 509 kts | 53° |
| 2026-05-08 07:32 | -35.90697 | 147.52699 | 39222 ft | 510 kts | 53° |
| 2026-05-08 07:32 | -35.86388 | 147.59639 | 39219 ft | 510 kts | 53° |
| 2026-05-08 07:33 | -35.82103 | 147.66629 | 39224 ft | 510 kts | 54° |
| 2026-05-08 07:33 | -35.77810 | 147.73648 | 39233 ft | 513 kts | 53° |
| 2026-05-08 07:34 | -35.73528 | 147.80624 | 39223 ft | 514 kts | 53° |
| 2026-05-08 07:34 | -35.69206 | 147.87651 | 39231 ft | 514 kts | 53° |
| 2026-05-08 07:35 | -35.64882 | 147.94668 | 39228 ft | 514 kts | 53° |
| 2026-05-08 07:35 | -35.60572 | 148.01649 | 39224 ft | 517 kts | 53° |
| 2026-05-08 07:36 | -35.56219 | 148.08686 | 39227 ft | 517 kts | 53° |
| 2026-05-08 07:36 | -35.51863 | 148.15714 | 39228 ft | 517 kts | 53° |
| 2026-05-08 07:37 | -35.47501 | 148.22737 | 39230 ft | 517 kts | 52° |
| 2026-05-08 07:37 | -35.43133 | 148.29756 | 39228 ft | 519 kts | 52° |
| 2026-05-08 07:38 | -35.38755 | 148.36792 | 39230 ft | 519 kts | 52° |
| 2026-05-08 07:38 | -35.34359 | 148.43817 | 39228 ft | 519 kts | 52° |
| 2026-05-08 07:39 | -35.29951 | 148.50848 | 39229 ft | 521 kts | 52° |
| 2026-05-08 07:39 | -35.25548 | 148.57862 | 39224 ft | 523 kts | 52° |
| 2026-05-08 07:40 | -35.21110 | 148.64922 | 39211 ft | 523 kts | 52° |
| 2026-05-08 07:40 | -35.16661 | 148.71983 | 39214 ft | 524 kts | 52° |
| 2026-05-08 07:41 | -35.12203 | 148.79045 | 39215 ft | 524 kts | 52° |
| 2026-05-08 07:41 | -35.07740 | 148.86101 | 39212 ft | 525 kts | 52° |
| 2026-05-08 07:42 | -35.03265 | 148.93161 | 39211 ft | 526 kts | 52° |
| 2026-05-08 07:42 | -34.98781 | 149.00222 | 39211 ft | 526 kts | 52° |
| 2026-05-08 07:43 | -34.94324 | 149.07227 | 39215 ft | 526 kts | 51° |
| 2026-05-08 07:43 | -34.89826 | 149.14281 | 39212 ft | 526 kts | 51° |
| 2026-05-08 07:43 | -34.87585 | 149.17789 | 39095 ft | 520 kts | 51° |
| 2026-05-08 07:44 | -34.85368 | 149.21257 | 38379 ft | 518 kts | 52° |
| 2026-05-08 07:44 | -34.83169 | 149.24692 | 37439 ft | 520 kts | 52° |
| 2026-05-08 07:44 | -34.80940 | 149.28169 | 36530 ft | 521 kts | 52° |
| 2026-05-08 07:44 | -34.78704 | 149.31654 | 35653 ft | 521 kts | 53° |
| 2026-05-08 07:45 | -34.76471 | 149.35132 | 34786 ft | 522 kts | 53° |
| 2026-05-08 07:45 | -34.74320 | 149.38682 | 33800 ft | 522 kts | 59° |
| 2026-05-08 07:45 | -34.72481 | 149.42493 | 32691 ft | 523 kts | 63° |
| 2026-05-08 07:45 | -34.70722 | 149.46382 | 31542 ft | 527 kts | 63° |
| 2026-05-08 07:46 | -34.68988 | 149.50340 | 30406 ft | 531 kts | 64° |
| 2026-05-08 07:46 | -34.67270 | 149.54316 | 29269 ft | 532 kts | 64° |
| 2026-05-08 07:46 | -34.65563 | 149.58269 | 28444 ft | 526 kts | 64° |
| 2026-05-08 07:46 | -34.63868 | 149.62178 | 27686 ft | 519 kts | 64° |
| 2026-05-08 07:47 | -34.62195 | 149.66021 | 26966 ft | 512 kts | 64° |
| 2026-05-08 07:47 | -34.60535 | 149.69817 | 26192 ft | 506 kts | 64° |
| 2026-05-08 07:47 | -34.58911 | 149.73522 | 25581 ft | 501 kts | 64° |
| 2026-05-08 07:47 | -34.57271 | 149.77255 | 25273 ft | 501 kts | 63° |
| 2026-05-08 07:48 | -34.55631 | 149.80984 | 25210 ft | 500 kts | 63° |
| 2026-05-08 07:48 | -34.53998 | 149.84693 | 25191 ft | 498 kts | 63° |
| 2026-05-08 07:48 | -34.52377 | 149.88369 | 24689 ft | 489 kts | 63° |
| 2026-05-08 07:48 | -34.50780 | 149.91986 | 23898 ft | 486 kts | 64° |
| 2026-05-08 07:49 | -34.49188 | 149.95593 | 23024 ft | 481 kts | 64° |
| 2026-05-08 07:49 | -34.47617 | 149.99145 | 22196 ft | 475 kts | 64° |
| 2026-05-08 07:49 | -34.46059 | 150.02659 | 21381 ft | 470 kts | 64° |
| 2026-05-08 07:49 | -34.44524 | 150.06118 | 20584 ft | 464 kts | 64° |
| 2026-05-08 07:50 | -34.43008 | 150.09535 | 19804 ft | 458 kts | 64° |
| 2026-05-08 07:50 | -34.41526 | 150.12870 | 19064 ft | 452 kts | 64° |
| 2026-05-08 07:50 | -34.40025 | 150.16247 | 18277 ft | 447 kts | 64° |
| 2026-05-08 07:50 | -34.38577 | 150.19504 | 17373 ft | 443 kts | 64° |
| 2026-05-08 07:51 | -34.37116 | 150.22787 | 16467 ft | 441 kts | 64° |
| 2026-05-08 07:51 | -34.35667 | 150.26038 | 15659 ft | 435 kts | 64° |
| 2026-05-08 07:51 | -34.34236 | 150.29242 | 14855 ft | 430 kts | 64° |
| 2026-05-08 07:51 | -34.32824 | 150.32401 | 14265 ft | 420 kts | 64° |
| 2026-05-08 07:52 | -34.31468 | 150.35426 | 13653 ft | 396 kts | 64° |
| 2026-05-08 07:52 | -34.30195 | 150.38261 | 13017 ft | 369 kts | 64° |
| 2026-05-08 07:52 | -34.29013 | 150.40900 | 12442 ft | 346 kts | 64° |
| 2026-05-08 07:52 | -34.27897 | 150.43392 | 11896 ft | 330 kts | 65° |
| 2026-05-08 07:53 | -34.26831 | 150.45785 | 11347 ft | 324 kts | 65° |
| 2026-05-08 07:53 | -34.25765 | 150.48174 | 10809 ft | 322 kts | 65° |
| 2026-05-08 07:53 | -34.24709 | 150.50538 | 10266 ft | 319 kts | 65° |
| 2026-05-08 07:53 | -34.23657 | 150.52891 | 9689 ft | 319 kts | 66° |
| 2026-05-08 07:54 | -34.22615 | 150.55216 | 9088 ft | 311 kts | 66° |
| 2026-05-08 07:54 | -34.21590 | 150.57503 | 8499 ft | 308 kts | 66° |
| 2026-05-08 07:54 | -34.20573 | 150.59771 | 7909 ft | 306 kts | 66° |
| 2026-05-08 07:54 | -34.19566 | 150.62019 | 7332 ft | 302 kts | 66° |
| 2026-05-08 07:55 | -34.18575 | 150.64227 | 6769 ft | 296 kts | 66° |
| 2026-05-08 07:55 | -34.17598 | 150.66403 | 6261 ft | 293 kts | 67° |
| 2026-05-08 07:55 | -34.16627 | 150.68560 | 6019 ft | 292 kts | 66° |
| 2026-05-08 07:55 | -34.15669 | 150.70689 | 6001 ft | 278 kts | 66° |
| 2026-05-08 07:56 | -34.14772 | 150.72665 | 6016 ft | 261 kts | 67° |
| 2026-05-08 07:56 | -34.13911 | 150.74576 | 6014 ft | 258 kts | 68° |
| 2026-05-08 07:56 | -34.13058 | 150.76480 | 6006 ft | 258 kts | 68° |
| 2026-05-08 07:56 | -34.12198 | 150.78391 | 6006 ft | 259 kts | 68° |
| 2026-05-08 07:57 | -34.11350 | 150.80278 | 6000 ft | 259 kts | 67° |
| 2026-05-08 07:57 | -34.10479 | 150.82211 | 6004 ft | 259 kts | 68° |
| 2026-05-08 07:57 | -34.09620 | 150.84122 | 6003 ft | 259 kts | 68° |
| 2026-05-08 07:57 | -34.08771 | 150.86010 | 6003 ft | 259 kts | 68° |
| 2026-05-08 07:58 | -34.07915 | 150.87907 | 5999 ft | 256 kts | 68° |
| 2026-05-08 07:58 | -34.07064 | 150.89791 | 5997 ft | 255 kts | 68° |
| 2026-05-08 07:58 | -34.06219 | 150.91667 | 6000 ft | 254 kts | 68° |
| 2026-05-08 07:58 | -34.05373 | 150.93545 | 5993 ft | 253 kts | 68° |
| 2026-05-08 07:59 | -34.04533 | 150.95410 | 5991 ft | 253 kts | 68° |
| 2026-05-08 07:59 | -34.03687 | 150.97270 | 5992 ft | 253 kts | 66° |
| 2026-05-08 07:59 | -34.02513 | 150.98886 | 5994 ft | 262 kts | 38° |
| 2026-05-08 07:59 | -34.00850 | 150.99699 | 5995 ft | 265 kts | 8° |
| 2026-05-08 08:00 | -33.99015 | 150.99658 | 6002 ft | 263 kts | 350° |
| 2026-05-08 08:00 | -33.97207 | 150.99328 | 6009 ft | 262 kts | 348° |
| 2026-05-08 08:00 | -33.95420 | 150.98966 | 5940 ft | 257 kts | 348° |
| 2026-05-08 08:00 | -33.93661 | 150.98609 | 5528 ft | 255 kts | 348° |
| 2026-05-08 08:01 | -33.91895 | 150.98252 | 5010 ft | 259 kts | 348° |
| 2026-05-08 08:01 | -33.90121 | 150.97896 | 4580 ft | 257 kts | 348° |
| 2026-05-08 08:01 | -33.88394 | 150.97550 | 4380 ft | 245 kts | 347° |
| 2026-05-08 08:01 | -33.86731 | 150.97227 | 4080 ft | 240 kts | 347° |
| 2026-05-08 08:02 | -33.85086 | 150.96917 | 3725 ft | 239 kts | 347° |
| 2026-05-08 08:02 | -33.83463 | 150.96621 | 3371 ft | 237 kts | 347° |
| 2026-05-08 08:02 | -33.81857 | 150.96348 | 3077 ft | 229 kts | 347° |
| 2026-05-08 08:02 | -33.80283 | 150.96093 | 2997 ft | 229 kts | 347° |
| 2026-05-08 08:03 | -33.78700 | 150.95838 | 2993 ft | 229 kts | 347° |
| 2026-05-08 08:03 | -33.77115 | 150.95593 | 2995 ft | 230 kts | 347° |
| 2026-05-08 08:03 | -33.75524 | 150.95382 | 2995 ft | 231 kts | 352° |
| 2026-05-08 08:03 | -33.73976 | 150.95784 | 3004 ft | 224 kts | 27° |
| 2026-05-08 08:04 | -33.72761 | 150.96807 | 3016 ft | 204 kts | 40° |
| 2026-05-08 08:04 | -33.71842 | 150.97983 | 3005 ft | 184 kts | 65° |
| 2026-05-08 08:04 | -33.71383 | 150.99367 | 3023 ft | 175 kts | 79° |
| 2026-05-08 08:04 | -33.71070 | 151.00761 | 3010 ft | 173 kts | 82° |
| 2026-05-08 08:05 | -33.70779 | 151.02166 | 3002 ft | 172 kts | 83° |
| 2026-05-08 08:05 | -33.70839 | 151.03534 | 3009 ft | 163 kts | 120° |
| 2026-05-08 08:05 | -33.71382 | 151.04705 | 3009 ft | 155 kts | 135° |
| 2026-05-08 08:05 | -33.72004 | 151.05743 | 2990 ft | 154 kts | 137° |
| 2026-05-08 08:06 | -33.72649 | 151.06753 | 2973 ft | 152 kts | 135° |
| 2026-05-08 08:06 | -33.73300 | 151.07758 | 3013 ft | 153 kts | 137° |
| 2026-05-08 08:06 | -33.73944 | 151.08772 | 2985 ft | 152 kts | 136° |
| 2026-05-08 08:06 | -33.74568 | 151.09789 | 3017 ft | 151 kts | 137° |
| 2026-05-08 08:07 | -33.75212 | 151.10788 | 2980 ft | 149 kts | 140° |
| 2026-05-08 08:07 | -33.76010 | 151.11533 | 3003 ft | 144 kts | 153° |
| 2026-05-08 08:07 | -33.76839 | 151.12194 | 3009 ft | 143 kts | 157° |
| 2026-05-08 08:07 | -33.77681 | 151.12813 | 2998 ft | 140 kts | 163° |
| 2026-05-08 08:08 | -33.78571 | 151.13282 | 2928 ft | 139 kts | 167° |
| 2026-05-08 08:08 | -33.79475 | 151.13641 | 2753 ft | 134 kts | 173° |
| 2026-05-08 08:08 | -33.80377 | 151.13924 | 2555 ft | 134 kts | 174° |
| 2026-05-08 08:08 | -33.81279 | 151.14185 | 2373 ft | 134 kts | 176° |
| 2026-05-08 08:09 | -33.82147 | 151.14417 | 2204 ft | 123 kts | 178° |
| 2026-05-08 08:09 | -33.82958 | 151.14623 | 2032 ft | 116 kts | 180° |
| 2026-05-08 08:09 | -33.83747 | 151.14823 | 1894 ft | 117 kts | 180° |
| 2026-05-08 08:09 | -33.84546 | 151.15027 | 1737 ft | 117 kts | 180° |
| 2026-05-08 08:10 | -33.85339 | 151.15230 | 1561 ft | 116 kts | 180° |
| 2026-05-08 08:10 | -33.86133 | 151.15433 | 1409 ft | 117 kts | 178° |
| 2026-05-08 08:10 | -33.86939 | 151.15640 | 1258 ft | 119 kts | 179° |
| 2026-05-08 08:10 | -33.87750 | 151.15848 | 1085 ft | 120 kts | 178° |
| 2026-05-08 08:11 | -33.88556 | 151.16054 | 935 ft | 117 kts | 179° |
| 2026-05-08 08:11 | -33.89338 | 151.16250 | 852 ft | 121 kts | 177° |
| 2026-05-08 08:11 | -33.90245 | 151.16480 | 642 ft | 138 kts | 174° |
| 2026-05-08 08:11 | -33.91165 | 151.16720 | 382 ft | 132 kts | 174° |
| 2026-05-08 08:12 | -33.92012 | 151.16953 | 264 ft | 117 kts | 176° |
| 2026-05-08 08:12 | -33.92787 | 151.17133 | 85 ft | 109 kts | 178° |
| 2026-05-08 08:12 | -33.93484 | 151.17295 | 23 ft | 92 kts | 167° |
| 2026-05-08 08:12 | -33.93906 | 151.17408 | 26 ft | 48 kts | 166° |
| 2026-05-08 08:13 | -33.94111 | 151.17442 | 30 ft | 10 kts | 212° |
| 2026-05-08 08:13 | -33.94140 | 151.17361 | 28 ft | 12 kts | 257° |
| 2026-05-08 08:13 | -33.94123 | 151.17270 | 28 ft | 12 kts | 328° |
| 2026-05-08 08:13 | -33.94023 | 151.17236 | 27 ft | 18 kts | 349° |
| 2026-05-08 08:14 | -33.93872 | 151.17199 | 26 ft | 26 kts | 348° |
| 2026-05-08 08:14 | -33.93749 | 151.17166 | 23 ft | 28 kts | 347° |
| 2026-05-08 08:14 | -33.93556 | 151.17115 | 26 ft | 30 kts | 348° |
| 2026-05-08 08:14 | -33.93397 | 151.17074 | 30 ft | 17 kts | 347° |
| 2026-05-08 08:15 | -33.93285 | 151.16944 | 27 ft | 9 kts | 280° |
| 2026-05-08 08:15 | -33.93285 | 151.16940 | 27 ft | 1 kts | 274° |
| 2026-05-08 08:15 | -33.93289 | 151.16934 | 27 ft | 1 kts | 240° |
| 2026-05-08 08:15 | -33.93314 | 151.16913 | 27 ft | 7 kts | 211° |
| 2026-05-08 08:16 | -33.93375 | 151.16892 | 27 ft | 12 kts | 180° |
| 2026-05-08 08:16 | -33.93435 | 151.16899 | 27 ft | 11 kts | 184° |
| 2026-05-08 08:16 | -33.93465 | 151.16854 | 27 ft | 8 kts | 253° |
| 2026-05-08 08:16 | -33.93476 | 151.16807 | 27 ft | 0 kts | 255° |
| 2026-05-08 08:17 | -33.93477 | 151.16802 | 27 ft | 0 kts | 255° |